createdAt,value
2022-10-15T00:01:32.510Z,30.15
2022-10-15T00:06:33.815Z,30.33
2022-10-15T00:09:00.766Z,30.92
2022-10-15T00:11:28.415Z,30.75
2022-10-15T00:14:01.842Z,30.90
2022-10-15T00:16:29.496Z,30.70
2022-10-15T00:18:57.446Z,33.20
2022-10-15T00:21:24.281Z,32.45
2022-10-15T00:23:51.074Z,30.42
2022-10-15T00:26:20.599Z,32.45
2022-10-15T00:28:49.887Z,30.80
2022-10-15T00:31:24.556Z,31.60
2022-10-15T00:33:54.873Z,30.77
2022-10-15T00:36:31.234Z,29.35
2022-10-15T00:39:00.914Z,30.60
2022-10-15T00:41:35.206Z,31.02
2022-10-15T00:44:22.039Z,29.98
2022-10-15T00:46:52.189Z,29.55
2022-10-15T00:49:25.507Z,31.70
2022-10-15T00:52:10.378Z,29.60
2022-10-15T00:55:16.839Z,32.10
2022-10-15T00:57:49.233Z,32.25
2022-10-15T01:00:17.179Z,31.25
2022-10-15T01:02:47.168Z,33.30
2022-10-15T01:05:16.278Z,33.13
2022-10-15T01:07:43.034Z,31.30
2022-10-15T01:10:10.428Z,30.42
2022-10-15T01:13:00.125Z,31.80
2022-10-15T01:15:33.711Z,33.17
2022-10-15T01:18:14.422Z,30.80
2022-10-15T01:21:02.177Z,31.15
2022-10-15T01:23:58.575Z,31.08
2022-10-15T01:27:06.263Z,30.20
2022-10-15T01:29:48.086Z,30.40
2022-10-15T01:32:17.689Z,32.33
2022-10-15T01:35:17.458Z,32.70
2022-10-15T01:38:10.259Z,29.58
2022-10-15T01:40:48.843Z,31.20
2022-10-15T01:43:24.999Z,29.60
2022-10-15T01:46:41.251Z,30.00
2022-10-15T01:49:13.360Z,30.15
2022-10-15T01:51:41.594Z,31.67
2022-10-15T01:54:12.669Z,31.05
2022-10-15T01:56:49.564Z,29.20
2022-10-15T02:01:54.999Z,29.70
2022-10-15T02:04:34.244Z,29.42
2022-10-15T02:07:12.899Z,30.25
2022-10-15T02:09:57.112Z,31.45
2022-10-15T02:12:37.974Z,28.15
2022-10-15T02:15:22.802Z,30.35
2022-10-15T02:18:04.514Z,29.42
2022-10-15T02:20:54.552Z,31.33
2022-10-15T02:23:40.284Z,30.70
2022-10-15T02:26:09.108Z,29.90
2022-10-15T02:28:37.141Z,31.90
2022-10-15T02:31:08.133Z,31.13
2022-10-15T02:33:35.868Z,29.83
2022-10-15T02:36:02.895Z,28.95
2022-10-15T02:38:33.213Z,29.20
2022-10-15T02:41:00.564Z,30.60
2022-10-15T02:43:27.351Z,31.08
2022-10-15T02:45:56.318Z,29.08
2022-10-15T02:48:23.209Z,29.77
2022-10-15T02:50:49.951Z,30.85
2022-10-15T02:53:16.662Z,29.17
2022-10-15T02:55:43.891Z,28.20
2022-10-15T02:58:11.812Z,29.05
2022-10-15T03:00:38.782Z,29.23
2022-10-15T03:03:05.611Z,27.85
2022-10-15T03:05:34.492Z,31.23
2022-10-15T03:08:03.874Z,29.55
2022-10-15T03:10:32.812Z,30.60
2022-10-15T03:13:07.308Z,31.30
2022-10-15T03:15:41.083Z,30.75
2022-10-15T03:18:10.895Z,29.50
2022-10-15T03:20:39.928Z,30.30
2022-10-15T03:23:09.217Z,30.10
2022-10-15T03:25:36.614Z,30.60
2022-10-15T03:28:04.922Z,29.08
2022-10-15T03:30:42.016Z,28.77
2022-10-15T03:33:09.409Z,28.60
2022-10-15T03:35:39.276Z,28.58
2022-10-15T03:38:07.683Z,29.83
2022-10-15T03:40:34.665Z,28.70
2022-10-15T03:43:15.589Z,30.67
2022-10-15T03:45:42.443Z,29.85
2022-10-15T03:48:19.603Z,29.25
2022-10-15T03:50:48.836Z,30.88
2022-10-15T03:53:16.013Z,27.67
2022-10-15T03:55:43.065Z,27.83
2022-10-15T03:58:12.108Z,27.58
2022-10-15T04:00:49.534Z,27.38
2022-10-15T04:03:16.784Z,28.23
2022-10-15T04:05:54.148Z,26.85
2022-10-15T04:08:24.123Z,27.17
2022-10-15T04:10:51.471Z,27.33
2022-10-15T04:13:20.876Z,26.55
2022-10-15T04:15:47.715Z,27.38
2022-10-15T04:18:21.058Z,27.58
2022-10-15T04:20:52.715Z,28.65
2022-10-15T04:23:22.526Z,29.60
2022-10-15T04:26:12.089Z,26.95
2022-10-15T04:28:39.001Z,29.50
2022-10-15T04:31:05.863Z,26.67
2022-10-15T04:33:32.641Z,27.65
2022-10-15T04:36:06.590Z,28.50
2022-10-15T04:38:57.037Z,27.52
2022-10-15T04:41:31.563Z,28.00
2022-10-15T04:44:03.157Z,27.95
2022-10-15T04:46:31.709Z,27.75
2022-10-15T04:49:02.900Z,26.60
2022-10-15T04:51:34.778Z,27.48
2022-10-15T04:56:57.594Z,27.42
2022-10-15T04:59:27.111Z,27.63
2022-10-15T05:02:12.768Z,27.25
2022-10-15T05:04:44.003Z,27.05
2022-10-15T05:07:10.720Z,26.33
2022-10-15T05:09:38.670Z,29.70
2022-10-15T05:12:06.215Z,29.33
2022-10-15T05:14:35.848Z,29.60
2022-10-15T05:17:10.041Z,27.55
2022-10-15T05:19:41.545Z,25.83
2022-10-15T05:22:15.927Z,26.48
2022-10-15T05:24:49.397Z,27.00
2022-10-15T05:27:32.834Z,26.23
2022-10-15T05:30:04.571Z,27.25
2022-10-15T05:32:53.017Z,25.83
2022-10-15T05:35:24.977Z,26.80
2022-10-15T05:37:54.733Z,25.42
2022-10-15T05:40:22.595Z,25.35
2022-10-15T05:43:04.643Z,26.02
2022-10-15T05:48:05.426Z,26.73
2022-10-15T05:50:32.756Z,27.33
2022-10-15T05:53:02.535Z,26.05
2022-10-15T05:55:37.444Z,27.65
2022-10-15T05:58:04.914Z,26.40
2022-10-15T06:00:39.648Z,25.42
2022-10-15T06:03:19.903Z,24.70
2022-10-15T06:05:46.700Z,26.02
2022-10-15T06:08:13.656Z,27.15
2022-10-15T06:10:40.314Z,26.90
2022-10-15T06:13:07.060Z,26.85
2022-10-15T06:15:41.827Z,26.75
2022-10-15T06:18:12.469Z,25.23
2022-10-15T06:20:43.996Z,27.77
2022-10-15T06:25:40.422Z,26.13
2022-10-15T06:28:14.435Z,27.20
2022-10-15T06:30:44.402Z,27.48
2022-10-15T06:33:16.201Z,27.55
2022-10-15T06:35:47.491Z,26.75
2022-10-15T06:38:14.148Z,27.05
2022-10-15T06:40:40.990Z,26.98
2022-10-15T06:43:11.615Z,26.38
2022-10-15T06:45:46.164Z,26.08
2022-10-15T06:48:23.493Z,27.30
2022-10-15T06:50:52.564Z,26.83
2022-10-15T06:53:19.346Z,26.75
2022-10-15T06:55:48.532Z,26.60
2022-10-15T06:58:20.540Z,26.30
2022-10-15T07:00:49.505Z,27.08
2022-10-15T07:03:20.959Z,28.50
2022-10-15T07:05:53.331Z,26.02
2022-10-15T07:08:21.479Z,22.20
2022-10-15T07:10:50.934Z,20.73
2022-10-15T07:13:17.604Z,22.17
2022-10-15T07:15:49.690Z,25.27
2022-10-15T07:18:21.747Z,20.95
2022-10-15T07:20:48.625Z,18.48
2022-10-15T07:23:15.398Z,18.58
2022-10-15T07:25:44.567Z,17.60
2022-10-15T07:28:13.733Z,17.05
2022-10-15T07:30:40.692Z,16.10
2022-10-15T07:33:10.148Z,17.15
2022-10-15T07:35:39.321Z,16.98
2022-10-15T07:38:06.014Z,18.02
2022-10-15T07:40:35.133Z,17.50
2022-10-15T07:43:04.357Z,17.42
2022-10-15T07:48:00.284Z,16.23
2022-10-15T07:50:29.303Z,18.10
2022-10-15T07:53:01.889Z,18.08
2022-10-15T07:55:28.601Z,17.98
2022-10-15T07:57:58.367Z,17.83
2022-10-15T08:00:25.425Z,18.15
2022-10-15T08:02:54.879Z,18.98
2022-10-15T08:05:21.628Z,16.70
2022-10-15T08:07:48.335Z,17.77
2022-10-15T08:10:15.292Z,18.33
2022-10-15T08:12:41.998Z,17.48
2022-10-15T08:15:08.975Z,16.50
2022-10-15T08:17:35.644Z,17.15
2022-10-15T08:20:05.195Z,17.38
2022-10-15T08:22:34.131Z,16.13
2022-10-15T08:25:00.830Z,16.73
2022-10-15T08:27:27.694Z,16.73
2022-10-15T08:30:02.058Z,16.08
2022-10-15T08:32:28.748Z,16.20
2022-10-15T08:34:58.078Z,15.32
2022-10-15T08:37:27.290Z,15.90
2022-10-15T08:39:56.124Z,14.68
2022-10-15T08:42:32.212Z,14.80
2022-10-15T08:45:02.267Z,16.33
2022-10-15T08:47:36.236Z,15.88
2022-10-15T08:50:35.807Z,14.65
2022-10-15T08:53:02.808Z,15.02
2022-10-15T08:55:35.754Z,13.95
2022-10-15T08:58:13.954Z,14.07
2022-10-15T09:00:43.570Z,15.00
2022-10-15T09:03:14.957Z,12.52
2022-10-15T09:05:50.895Z,13.55
2022-10-15T09:08:30.053Z,12.65
2022-10-15T09:11:14.236Z,12.73
2022-10-15T09:13:42.331Z,12.65
2022-10-15T09:16:34.401Z,11.70
2022-10-15T09:19:10.201Z,11.00
2022-10-15T09:21:39.351Z,10.88
2022-10-15T09:24:06.375Z,10.25
2022-10-15T09:26:57.903Z,10.02
2022-10-15T09:29:52.356Z,9.27
2022-10-15T09:32:37.710Z,10.40
2022-10-15T09:35:13.125Z,10.50
2022-10-15T09:38:49.107Z,9.43
2022-10-15T09:41:36.629Z,9.43
2022-10-15T09:44:05.742Z,9.02
2022-10-15T09:46:45.560Z,8.55
2022-10-15T09:49:33.875Z,8.05
2022-10-15T09:52:11.264Z,8.52
2022-10-15T09:54:45.643Z,7.80
2022-10-15T09:57:15.217Z,8.15
2022-10-15T09:59:56.755Z,7.28
2022-10-15T10:02:26.318Z,6.85
2022-10-15T10:04:56.637Z,7.25
2022-10-15T10:07:35.077Z,7.13
2022-10-15T10:10:25.848Z,7.35
2022-10-15T10:12:56.564Z,7.38
2022-10-15T10:15:30.189Z,6.72
2022-10-15T10:17:59.864Z,7.50
2022-10-15T10:20:36.115Z,6.35
2022-10-15T10:23:09.911Z,7.43
2022-10-15T10:25:42.500Z,7.07
2022-10-15T10:28:09.452Z,6.60
2022-10-15T10:30:40.387Z,6.35
2022-10-15T10:33:09.261Z,5.72
2022-10-15T10:35:50.804Z,6.15
2022-10-15T10:38:21.903Z,5.82
2022-10-15T10:40:56.028Z,5.43
2022-10-15T10:43:29.483Z,9.05
2022-10-15T10:46:04.175Z,6.10
2022-10-15T10:48:39.321Z,4.57
2022-10-15T10:51:18.248Z,4.60
2022-10-15T10:54:08.543Z,5.10
2022-10-15T10:56:45.165Z,5.72
2022-10-15T10:59:34.748Z,4.60
2022-10-15T11:02:08.769Z,5.40
2022-10-15T11:04:38.982Z,5.20
2022-10-15T11:07:08.625Z,5.55
2022-10-15T11:09:55.303Z,7.20
2022-10-15T11:12:51.037Z,5.30
2022-10-15T11:15:53.934Z,4.65
2022-10-15T11:18:41.397Z,4.53
2022-10-15T11:21:13.369Z,4.32
2022-10-15T11:23:43.487Z,4.75
2022-10-15T11:26:52.470Z,4.25
2022-10-15T11:30:10.615Z,4.20
2022-10-15T11:33:06.116Z,4.22
2022-10-15T11:35:52.807Z,3.85
2022-10-15T11:38:46.120Z,4.63
2022-10-15T11:41:48.009Z,3.35
2022-10-15T11:44:33.983Z,4.10
2022-10-15T11:47:24.299Z,3.53
2022-10-15T11:50:11.880Z,3.53
2022-10-15T11:52:59.046Z,3.38
2022-10-15T11:55:34.042Z,3.92
2022-10-15T11:58:06.233Z,4.47
2022-10-15T12:00:36.146Z,4.35
2022-10-15T12:03:11.103Z,3.72
2022-10-15T12:05:40.425Z,4.22
2022-10-15T12:08:12.929Z,3.80
2022-10-15T12:10:56.491Z,3.53
2022-10-15T12:13:34.789Z,3.40
2022-10-15T12:16:39.103Z,4.18
2022-10-15T12:19:27.154Z,3.83
2022-10-15T12:21:54.783Z,3.20
2022-10-15T12:24:40.916Z,4.25
2022-10-15T12:27:26.376Z,3.70
2022-10-15T12:30:13.183Z,3.13
2022-10-15T12:32:48.661Z,3.28
2022-10-15T12:35:17.477Z,3.38
2022-10-15T12:37:48.470Z,3.60
2022-10-15T12:40:21.152Z,3.25
2022-10-15T12:42:56.688Z,3.30
2022-10-15T12:45:41.972Z,4.00
2022-10-15T12:48:08.653Z,2.90
2022-10-15T12:50:42.545Z,3.05
2022-10-15T12:53:34.291Z,3.47
2022-10-15T12:56:13.752Z,3.30
2022-10-15T12:58:48.000Z,3.20
2022-10-15T13:01:16.935Z,3.53
2022-10-15T13:03:53.559Z,3.72
2022-10-15T13:11:34.664Z,4.55
2022-10-15T13:14:03.656Z,3.53
2022-10-15T13:16:33.624Z,2.90
2022-10-15T13:19:03.174Z,3.05
2022-10-15T13:21:52.713Z,3.17
2022-10-15T13:24:27.375Z,3.40
2022-10-15T13:26:59.801Z,3.17
2022-10-15T13:29:27.788Z,3.58
2022-10-15T13:31:57.762Z,3.33
2022-10-15T13:34:30.419Z,3.97
2022-10-15T13:37:03.430Z,3.15
2022-10-15T13:39:36.311Z,3.38
2022-10-15T13:42:16.846Z,3.47
2022-10-15T13:44:45.035Z,3.67
2022-10-15T13:47:39.200Z,4.72
2022-10-15T13:50:25.600Z,3.40
2022-10-15T13:53:02.914Z,3.95
2022-10-15T13:55:42.896Z,3.55
2022-10-15T13:58:09.528Z,3.20
2022-10-15T14:00:39.302Z,3.38
2022-10-15T14:03:20.591Z,3.90
2022-10-15T14:05:50.515Z,3.55
2022-10-15T14:08:31.470Z,3.78
2022-10-15T14:11:01.071Z,3.03
2022-10-15T14:13:30.275Z,3.53
2022-10-15T14:16:13.306Z,4.18
2022-10-15T14:18:48.185Z,3.88
2022-10-15T14:21:21.227Z,3.97
2022-10-15T14:23:49.269Z,3.30
2022-10-15T14:26:16.965Z,3.97
2022-10-15T14:28:50.923Z,3.10
2022-10-15T14:31:35.608Z,3.08
2022-10-15T14:34:38.664Z,2.72
2022-10-15T14:37:43.222Z,3.22
2022-10-15T14:40:10.777Z,3.38
2022-10-15T14:42:52.794Z,3.05
2022-10-15T14:45:24.005Z,3.40
2022-10-15T14:48:07.486Z,3.70
2022-10-15T14:50:35.704Z,3.75
2022-10-15T14:53:11.208Z,2.97
2022-10-15T14:55:43.139Z,3.08
2022-10-15T14:58:17.872Z,3.45
2022-10-15T15:00:47.147Z,3.30
2022-10-15T15:03:16.102Z,3.60
2022-10-15T15:05:50.391Z,5.45
2022-10-15T15:08:19.850Z,3.17
2022-10-15T15:10:50.302Z,3.38
2022-10-15T15:13:22.754Z,3.50
2022-10-15T15:15:52.314Z,3.58
2022-10-15T15:18:21.936Z,3.85
2022-10-15T15:20:50.256Z,3.30
2022-10-15T15:23:21.640Z,3.47
2022-10-15T15:25:51.004Z,3.42
2022-10-15T15:28:22.651Z,3.70
2022-10-15T15:30:59.840Z,4.00
2022-10-15T15:33:29.423Z,3.72
2022-10-15T15:36:09.597Z,3.80
2022-10-15T15:41:04.004Z,3.38
2022-10-15T15:43:30.895Z,4.15
2022-10-15T15:45:59.877Z,3.65
2022-10-15T15:48:26.550Z,4.00
2022-10-15T15:50:55.467Z,3.72
2022-10-15T15:53:24.803Z,3.35
2022-10-15T15:55:54.033Z,3.90
2022-10-15T16:00:49.429Z,3.40
2022-10-15T16:03:18.364Z,3.30
2022-10-15T16:05:45.221Z,3.45
2022-10-15T16:10:43.165Z,4.40
2022-10-15T16:13:12.363Z,3.83
2022-10-15T16:18:05.740Z,3.42
2022-10-15T16:20:39.317Z,3.83
2022-10-15T16:23:06.025Z,3.55
2022-10-15T16:25:32.914Z,4.53
2022-10-15T16:28:01.883Z,3.47
2022-10-15T16:30:28.892Z,4.53
2022-10-15T16:32:55.803Z,4.32
2022-10-15T16:35:22.719Z,4.95
2022-10-15T16:40:25.291Z,3.60
2022-10-15T16:42:56.884Z,4.03
2022-10-15T16:47:52.311Z,5.32
2022-10-15T16:50:21.834Z,10.65
2022-10-15T16:52:48.524Z,14.88
2022-10-15T16:55:16.797Z,27.25
2022-10-15T16:57:44.472Z,33.63
2022-10-15T17:00:12.024Z,35.00
2022-10-15T17:02:40.976Z,36.53
2022-10-15T17:05:08.234Z,37.60
2022-10-15T17:07:34.948Z,32.88
2022-10-15T17:10:04.134Z,28.65
2022-10-15T17:14:59.251Z,24.27
2022-10-15T17:17:28.313Z,20.23
2022-10-15T17:22:23.929Z,12.55
2022-10-15T17:24:51.076Z,9.70
2022-10-15T17:27:20.202Z,8.13
2022-10-15T17:29:46.911Z,7.40
2022-10-15T17:32:13.655Z,5.78
2022-10-15T17:34:45.153Z,6.10
2022-10-15T17:37:14.890Z,5.93
2022-10-15T17:39:45.101Z,5.75
2022-10-15T17:42:16.124Z,6.03
2022-10-15T17:44:42.852Z,5.93
2022-10-15T17:49:45.813Z,5.70
2022-10-15T17:52:12.947Z,5.78
2022-10-15T17:54:39.730Z,5.50
2022-10-15T17:57:06.516Z,5.35
2022-10-15T17:59:33.214Z,5.65
2022-10-15T18:02:02.515Z,4.88
2022-10-15T18:04:36.682Z,5.45
2022-10-15T18:07:03.432Z,7.18
2022-10-15T18:09:32.687Z,5.93
2022-10-15T18:12:01.143Z,5.68
2022-10-15T18:14:33.110Z,5.43
2022-10-15T18:17:00.125Z,5.82
2022-10-15T18:19:29.539Z,6.85
2022-10-15T18:21:57.870Z,6.43
2022-10-15T18:24:24.836Z,6.90
2022-10-15T18:26:52.119Z,6.47
2022-10-15T18:29:22.523Z,6.18
2022-10-15T18:31:57.118Z,6.38
2022-10-15T18:34:25.984Z,6.28
2022-10-15T18:36:54.928Z,6.25
2022-10-15T18:39:25.613Z,6.32
2022-10-15T18:41:52.334Z,6.22
2022-10-15T18:44:21.449Z,6.38
2022-10-15T18:49:16.988Z,6.60
2022-10-15T18:51:46.154Z,7.53
2022-10-15T18:56:42.267Z,6.90
2022-10-15T19:01:41.839Z,7.47
2022-10-15T19:04:18.724Z,7.60
2022-10-15T19:06:50.401Z,7.10
2022-10-15T19:09:29.377Z,6.75
2022-10-15T19:12:03.250Z,7.07
2022-10-15T19:14:30.199Z,6.45
2022-10-15T19:17:00.222Z,7.55
2022-10-15T19:19:29.665Z,6.68
2022-10-15T19:21:57.096Z,7.00
2022-10-15T19:24:24.573Z,7.63
2022-10-15T19:26:52.339Z,7.68
2022-10-15T19:29:19.651Z,7.25
2022-10-15T19:31:49.119Z,6.97
2022-10-15T19:34:15.944Z,6.47
2022-10-15T19:36:50.649Z,6.60
2022-10-15T19:39:21.201Z,6.88
2022-10-15T19:41:49.281Z,7.53
2022-10-15T19:44:17.379Z,7.32
2022-10-15T19:46:47.371Z,7.03
2022-10-15T19:49:14.993Z,6.95
2022-10-15T19:51:46.255Z,6.97
2022-10-15T19:54:16.608Z,7.50
2022-10-15T19:56:45.824Z,7.53
2022-10-15T20:01:41.528Z,7.40
2022-10-15T20:04:13.035Z,7.82
2022-10-15T20:06:40.890Z,7.28
2022-10-15T20:09:10.908Z,8.55
2022-10-15T20:11:38.017Z,7.65
2022-10-15T20:14:04.793Z,8.02
2022-10-15T20:16:33.406Z,7.18
2022-10-15T20:19:05.299Z,7.88
2022-10-15T20:21:36.930Z,7.30
2022-10-15T20:24:06.255Z,7.47
2022-10-15T20:28:59.747Z,6.90
2022-10-15T20:31:33.172Z,7.68
2022-10-15T20:34:03.409Z,7.32
2022-10-15T20:36:30.589Z,6.65
2022-10-15T20:38:59.399Z,7.35
2022-10-15T20:41:26.384Z,6.82
2022-10-15T20:43:56.564Z,7.25
2022-10-15T20:46:34.535Z,8.13
2022-10-15T20:49:09.375Z,7.63
2022-10-15T20:51:37.647Z,7.57
2022-10-15T20:54:09.661Z,6.97
2022-10-15T20:56:36.556Z,7.78
2022-10-15T20:59:05.027Z,6.85
2022-10-15T21:01:32.929Z,7.68
2022-10-15T21:03:59.817Z,6.82
2022-10-15T21:06:26.543Z,7.18
2022-10-15T21:08:53.386Z,6.65
2022-10-15T21:11:22.796Z,8.23
2022-10-15T21:13:54.821Z,7.15
2022-10-15T21:16:24.555Z,6.60
2022-10-15T21:18:54.357Z,7.25
2022-10-15T21:21:21.524Z,6.85
2022-10-15T21:23:48.770Z,7.20
2022-10-15T21:26:17.505Z,6.50
2022-10-15T21:28:45.300Z,7.05
2022-10-15T21:31:15.888Z,7.88
2022-10-15T21:33:46.151Z,6.55
2022-10-15T21:36:26.114Z,6.93
2022-10-15T21:38:58.622Z,7.38
2022-10-15T21:41:26.681Z,8.55
2022-10-15T21:43:53.964Z,8.02
2022-10-15T21:46:23.199Z,7.22
2022-10-15T21:51:23.832Z,7.63
2022-10-15T21:53:58.689Z,6.95
2022-10-15T21:56:29.154Z,6.45
2022-10-15T21:58:55.878Z,6.55
2022-10-15T22:01:24.640Z,6.20
2022-10-15T22:03:55.769Z,6.95
2022-10-15T22:06:23.146Z,7.20
2022-10-15T22:08:52.405Z,6.65
2022-10-15T22:11:20.824Z,6.53
2022-10-15T22:13:53.108Z,7.18
2022-10-15T22:18:46.990Z,5.65
2022-10-15T22:21:19.340Z,6.25
2022-10-15T22:23:58.160Z,5.90
2022-10-15T22:26:35.997Z,6.72
2022-10-15T22:29:05.008Z,5.45
2022-10-15T22:31:32.352Z,4.97
2022-10-15T22:33:59.287Z,5.78
2022-10-15T22:36:30.796Z,5.88
2022-10-15T22:39:01.605Z,5.38
2022-10-15T22:41:29.883Z,5.65
2022-10-15T22:43:56.935Z,5.25
2022-10-15T22:46:30.272Z,5.60
2022-10-15T22:48:59.190Z,5.63
2022-10-15T22:51:28.087Z,5.57
2022-10-15T22:53:55.926Z,5.13
2022-10-15T22:56:23.011Z,4.50
2022-10-15T22:58:52.397Z,5.18
2022-10-15T23:01:30.973Z,4.85
2022-10-15T23:04:01.866Z,4.95
2022-10-15T23:06:32.044Z,5.38
2022-10-15T23:09:01.712Z,4.95
2022-10-15T23:11:33.750Z,4.65
2022-10-15T23:14:04.020Z,5.18
2022-10-15T23:16:39.973Z,5.18
2022-10-15T23:19:10.825Z,5.18
2022-10-15T23:21:51.027Z,5.25
2022-10-15T23:24:24.725Z,4.80
2022-10-15T23:26:54.192Z,5.18
2022-10-15T23:29:25.017Z,5.50
2022-10-15T23:31:52.306Z,5.55
2022-10-15T23:34:23.440Z,4.80
2022-10-15T23:36:50.743Z,4.45
2022-10-15T23:39:23.412Z,4.82
2022-10-15T23:41:53.019Z,4.47
2022-10-15T23:44:20.333Z,4.40
2022-10-15T23:46:52.062Z,4.88
2022-10-15T23:49:23.387Z,4.35
2022-10-15T23:51:50.240Z,4.30
2022-10-15T23:54:18.310Z,4.57
2022-10-15T23:56:46.202Z,4.50
2022-10-15T23:59:13.276Z,5.28
